Jewell, OH (43530)

6:02 PM EDT on September 26, 2016 (GMT -0400)
Defiance Memorial | | Change Station

Elev 705 ft 41.34 °N, 84.43 °W | Updated 9 minutes ago

Clear
Clear
70 °F
Feels Like 70 °F
N
13
Wind Variable Wind from WSW
Gusts 22 mph

Today
High -- | Low -- °F
--% Chance of Precip.
Yesterday
High -- | Low -- °F
Precip. -- in
Pressure 29.92 in
Visibility 10.0 miles
Clouds Clear
Dew Point 39 °F
Humidity 32%
Rainfall 0.35 in
Snow Depth Not available.
7:29 AM 7:26 PM
Waning Crescent, 16% visible
METAR KDFI 262153Z AUTO 25011G19KT 200V280 10SM CLR 21/04 A2992 RMK AO2 SLP130 T02110039
Pressure 29.92 in
Visibility 10.0 miles
Clouds Clear
Dew Point 39 °F
Humidity 32%
Rainfall 0.35 in
Snow Depth Not available.
7:29 AM 7:26 PM
Waning Crescent, 16% visible
METAR KDFI 262153Z AUTO 25011G19KT 200V280 10SM CLR 21/04 A2992 RMK AO2 SLP130 T02110039

10-Day Weather Forecast

Almanac

Astronomy

Sep. 26, 2016 Rise Set
Actual Time
Civil Twilight
Nautical Twilight
Astronomical Twilight
Moon
Length of Visible Light
Length of Day
Tomorrow will be .
, % of the Moon is Illuminated

Today's Extremes

State Highs State Lows

Community

WunderPhotos

Upload Photos

1,941,976 photos uploaded!

WunderBlog® & News

Nearby

Air Quality

  Air Quality AQ Index Pollutant
Not available.

Snow Depth

Station Depth Elevation

Earthquake Activity

City Distance Mag. Time & Date
Minimum magnitude displayed is 2.5.

Coastal Water Temperatures

Place Temperature

Stations

Nearby Weather Stations

Station Location Temp. Windchill Dew Point Humidity Wind Precip. Elev Updated Type
                   

Watches & Warnings

There are currently no watches in effect.